Time;durP1;ratioP1;P1;durP2;ratioP2;P2;SDS_P1;SDS_P2;PMS_P1;PMS_P2;Temp;Humidity;BMP_temperature;BMP_pressure;BME280_temperature;BME280_humidity;BME280_pressure;Samples;Min_cycle;Max_cycle;Signal;HPM_P1;HPM_P2
2022/03/27 00:02:05;;;;;;;23.48;11.00;;;;;;;11.99;64.06;102629.66;5089298;28;20094;-63
2022/03/27 00:04:33;;;;;;;23.38;10.80;;;;;;;11.89;64.04;102638.31;5087159;28;20040;-63
2022/03/27 00:07:00;;;;;;;23.52;12.27;;;;;;;11.89;64.04;102638.31;5088328;28;20131;-62
2022/03/27 00:09:27;;;;;;;24.65;11.90;;;;;;;11.90;64.03;102631.25;5089124;28;20048;-63
2022/03/27 00:11:53;;;;;;;23.08;12.30;;;;;;;11.91;64.42;102632.91;5088114;28;20043;-63
2022/03/27 00:14:21;;;;;;;28.75;12.30;;;;;;;11.89;64.56;102627.69;5075125;28;20055;-63
2022/03/27 00:16:48;;;;;;;25.65;12.27;;;;;;;11.94;64.26;102631.84;5074616;28;20457;-63
2022/03/27 00:19:15;;;;;;;21.27;11.63;;;;;;;11.90;64.62;102633.91;5075726;28;20047;-64
2022/03/27 00:21:42;;;;;;;23.73;11.57;;;;;;;11.86;64.50;102638.56;5074052;28;20064;-63
2022/03/27 00:24:09;;;;;;;24.10;12.20;;;;;;;11.82;65.51;102631.75;5062683;28;20053;-63
2022/03/27 00:26:36;;;;;;;24.85;12.27;;;;;;;11.87;65.58;102636.75;5055462;28;20072;-63
2022/03/27 00:29:04;;;;;;;23.75;12.63;;;;;;;11.96;65.04;102635.25;5054553;28;20583;-62
2022/03/27 00:31:35;;;;;;;25.20;12.25;;;;;;;11.84;65.13;102637.84;5053337;28;20492;-63
2022/03/27 00:34:03;;;;;;;26.00;11.85;;;;;;;11.83;65.67;102636.13;5054485;28;20044;-62
2022/03/27 00:36:31;;;;;;;29.77;12.35;;;;;;;11.76;65.73;102634.91;5054967;28;20056;-63
2022/03/27 00:38:58;;;;;;;26.20;12.48;;;;;;;11.71;65.99;102632.59;5054228;28;20547;-62
2022/03/27 00:41:25;;;;;;;23.70;10.63;;;;;;;11.67;65.79;102630.28;5053884;28;20072;-62
2022/03/27 00:43:52;;;;;;;21.67;10.52;;;;;;;11.61;66.38;102630.75;5054970;28;20051;-63
2022/03/27 00:46:19;;;;;;;22.77;10.50;;;;;;;11.58;66.44;102633.63;5055136;28;20041;-62
2022/03/27 00:48:47;;;;;;;21.83;10.60;;;;;;;11.52;66.88;102630.47;5055375;28;20053;-62
2022/03/27 00:51:14;;;;;;;21.90;10.43;;;;;;;11.49;67.04;102629.84;5043934;28;20068;-62
2022/03/27 00:53:41;;;;;;;24.40;11.00;;;;;;;11.51;67.46;102634.09;5057255;28;20043;-62
2022/03/27 00:56:08;;;;;;;24.08;10.60;;;;;;;11.59;67.46;102624.66;5073646;28;20079;-62
2022/03/27 00:58:37;;;;;;;19.35;9.40;;;;;;;11.56;67.19;102630.25;5073674;28;20032;-62
2022/03/27 01:01:16;;;;;;;29.63;10.60;;;;;;;11.52;67.67;102629.63;5073332;28;20072;-62
2022/03/27 01:03:43;;;;;;;22.08;10.23;;;;;;;11.43;67.81;102627.66;5073085;28;20527;-62
2022/03/27 01:06:27;;;;;;;22.70;10.52;;;;;;;11.45;68.47;102631.03;5074328;28;20041;-62
2022/03/27 01:11:41;;;;;;;20.55;9.32;;;;;;;11.42;68.43;102618.81;5074345;28;20044;-63
2022/03/27 01:14:09;;;;;;;23.55;10.30;;;;;;;11.46;68.26;102622.94;5073666;28;20094;-63
2022/03/27 01:16:47;;;;;;;21.40;10.48;;;;;;;11.43;68.43;102617.03;5073526;28;20076;-62
2022/03/27 01:19:15;;;;;;;26.90;10.23;;;;;;;11.34;68.76;102611.41;5074560;28;20094;-63
2022/03/27 01:21:45;;;;;;;22.08;10.57;;;;;;;11.39;68.90;102619.06;5082423;28;20080;-63
2022/03/27 01:24:16;;;;;;;21.40;10.23;;;;;;;11.36;68.89;102613.94;5076440;28;20047;-63
2022/03/27 01:26:43;;;;;;;26.23;11.10;;;;;;;11.24;68.75;102615.72;5074097;28;20066;-63
2022/03/27 01:29:10;;;;;;;22.98;10.18;;;;;;;11.17;69.11;102610.94;5074447;28;20098;-63
2022/03/27 01:31:37;;;;;;;25.60;11.40;;;;;;;11.12;69.54;102611.31;5072766;28;20548;-63
2022/03/27 01:34:04;;;;;;;22.92;11.20;;;;;;;11.03;70.03;102607.50;5072195;28;20500;-63
2022/03/27 01:36:34;;;;;;;25.23;10.90;;;;;;;10.94;70.57;102597.56;5073848;28;20094;-63
2022/03/27 01:39:04;;;;;;;21.08;11.15;;;;;;;10.92;70.68;102602.13;5074417;28;20056;-63
2022/03/27 01:41:32;;;;;;;23.97;10.37;;;;;;;10.90;70.66;102596.91;5073011;28;20048;-63
2022/03/27 01:44:00;;;;;;;19.83;10.55;;;;;;;10.87;70.80;102596.28;5072672;28;20053;-63
2022/03/27 01:46:34;;;;;;;21.27;10.45;;;;;;;10.88;71.10;102595.34;5072506;28;20051;-63
2022/03/27 01:49:02;;;;;;;21.70;10.63;;;;;;;10.77;71.49;102596.13;5073983;28;20563;-63
2022/03/27 01:51:29;;;;;;;23.17;10.93;;;;;;;10.73;71.80;102591.97;5073608;28;20056;-63
2022/03/27 01:53:56;;;;;;;24.05;10.63;;;;;;;10.69;72.07;102591.34;5072885;28;20434;-63
2022/03/27 01:56:23;;;;;;;22.27;10.65;;;;;;;10.62;72.82;102583.94;5073741;28;20047;-62
2022/03/27 01:58:51;;;;;;;24.48;11.25;;;;;;;10.56;72.70;102583.41;5073678;28;20129;-62
2022/03/27 02:01:20;;;;;;;26.20;11.35;;;;;;;10.54;73.08;102584.47;5073505;28;20049;-63
2022/03/27 02:03:47;;;;;;;20.50;11.25;;;;;;;10.55;73.26;102588.81;5073701;28;20041;-63
2022/03/27 02:06:15;;;;;;;28.17;11.65;;;;;;;10.56;73.33;102591.38;5072532;28;20041;-63
2022/03/27 02:08:44;;;;;;;22.60;10.82;;;;;;;10.42;73.97;102590.66;5073481;28;20045;-63
2022/03/27 02:11:10;;;;;;;21.33;10.35;;;;;;;10.38;74.33;102587.34;5071788;28;20086;-64
2022/03/27 02:13:37;;;;;;;25.27;10.75;;;;;;;10.35;74.36;102588.44;5071218;28;20068;-62
2022/03/27 02:16:04;;;;;;;22.92;10.00;;;;;;;10.26;74.67;102588.19;5073354;28;20139;-63
2022/03/27 02:18:32;;;;;;;26.02;10.90;;;;;;;10.21;74.96;102595.63;5073492;28;20040;-63
2022/03/27 02:21:00;;;;;;;25.75;11.00;;;;;;;10.14;75.33;102588.09;5072935;28;20458;-63
2022/03/27 02:23:28;;;;;;;24.77;11.23;;;;;;;10.20;75.41;102586.81;5071964;28;20041;-63
2022/03/27 02:25:55;;;;;;;25.90;11.05;;;;;;;10.11;75.69;102596.25;5073379;28;20052;-63
2022/03/27 02:28:23;;;;;;;26.92;11.85;;;;;;;10.11;76.19;102595.41;5072431;28;20185;-63
2022/03/27 02:30:50;;;;;;;26.35;12.30;;;;;;;10.06;76.22;102587.78;5072972;28;20098;-63
2022/03/27 02:33:17;;;;;;;24.50;11.88;;;;;;;10.04;76.29;102587.03;5073400;28;20054;-63
2022/03/27 02:35:44;;;;;;;26.48;11.45;;;;;;;10.14;76.46;102590.72;5070596;28;20119;-63
2022/03/27 02:38:12;;;;;;;24.35;10.95;;;;;;;10.18;76.47;102588.72;5073412;28;20055;-63
2022/03/27 02:40:40;;;;;;;28.42;10.88;;;;;;;10.15;76.75;102594.22;5073297;28;20058;-63
2022/03/27 02:43:07;;;;;;;22.90;10.90;;;;;;;10.20;76.64;102589.47;5071718;28;20036;-63
2022/03/27 02:45:34;;;;;;;24.30;11.00;;;;;;;10.15;76.50;102588.91;5072749;28;20048;-63
2022/03/27 02:48:01;;;;;;;28.88;12.05;;;;;;;10.04;76.48;102594.13;5073281;28;20053;-63
2022/03/27 02:50:30;;;;;;;24.08;11.65;;;;;;;10.02;76.95;102593.38;5054599;28;20136;-63
2022/03/27 02:52:58;;;;;;;26.23;11.80;;;;;;;10.02;77.20;102594.22;5071871;28;20036;-64
2022/03/27 02:55:25;;;;;;;27.90;12.32;;;;;;;10.02;77.39;102586.25;5071643;28;20415;-63
2022/03/27 02:57:53;;;;;;;26.10;12.38;;;;;;;9.99;77.73;102579.38;5072943;28;20043;-63
2022/03/27 03:00:25;;;;;;;30.27;12.35;;;;;;;9.99;77.69;102584.69;5072898;28;20086;-63
2022/03/27 03:02:53;;;;;;;27.30;12.30;;;;;;;9.97;77.85;102580.47;5072586;28;20048;-63
2022/03/27 03:05:21;;;;;;;28.75;13.18;;;;;;;9.91;77.92;102579.03;5071344;28;20123;-63
2022/03/27 03:07:49;;;;;;;24.88;12.18;;;;;;;9.85;78.39;102576.81;5071009;28;20056;-63
2022/03/27 03:10:16;;;;;;;25.10;12.95;;;;;;;9.88;78.42;102576.63;5073116;28;20045;-63
2022/03/27 03:12:43;;;;;;;25.00;13.23;;;;;;;9.81;78.55;102580.66;5072544;28;20530;-63
2022/03/27 03:15:10;;;;;;;29.65;13.65;;;;;;;9.78;78.87;102579.03;5071909;28;20076;-63
2022/03/27 03:17:38;;;;;;;30.38;13.27;;;;;;;9.79;79.21;102578.09;5055096;28;20122;-63
2022/03/27 03:20:05;;;;;;;32.00;13.85;;;;;;;9.75;79.54;102581.03;5072669;28;20447;-63
2022/03/27 03:22:32;;;;;;;29.95;13.27;;;;;;;9.69;79.52;102579.66;5072052;28;20037;-63
2022/03/27 03:24:59;;;;;;;30.08;14.05;;;;;;;9.78;79.37;102580.84;5072877;28;20451;-63
2022/03/27 03:27:26;;;;;;;28.85;13.75;;;;;;;9.84;79.38;102576.94;5072539;28;20127;-63
2022/03/27 03:29:52;;;;;;;27.85;14.00;;;;;;;9.74;79.08;102582.00;5071621;28;20079;-63
2022/03/27 03:32:22;;;;;;;28.20;14.32;;;;;;;9.61;79.79;102585.47;5072686;28;20041;-63
2022/03/27 03:34:49;;;;;;;25.83;14.80;;;;;;;9.61;79.94;102582.84;5069690;28;20048;-63
2022/03/27 03:37:17;;;;;;;30.27;15.85;;;;;;;9.59;79.92;102582.09;5042526;28;20135;-63
2022/03/27 03:39:45;;;;;;;30.67;15.88;;;;;;;9.58;80.07;102585.69;5082356;28;20102;-63
2022/03/27 03:42:13;;;;;;;30.02;14.57;;;;;;;9.55;79.99;102577.09;5072844;28;20049;-63
2022/03/27 03:44:41;;;;;;;33.53;15.55;;;;;;;9.52;80.09;102572.00;5072424;28;20040;-62
2022/03/27 03:47:09;;;;;;;33.10;15.23;;;;;;;9.58;80.20;102569.78;5071358;28;20048;-63
2022/03/27 03:49:36;;;;;;;26.65;15.02;;;;;;;9.53;80.36;102576.34;5075622;28;20044;-63
2022/03/27 03:52:03;;;;;;;32.95;15.50;;;;;;;9.47;80.67;102572.31;5075696;28;20040;-62
2022/03/27 03:54:30;;;;;;;28.40;15.25;;;;;;;9.49;80.36;102575.69;5076235;28;20492;-63
2022/03/27 03:56:57;;;;;;;32.75;16.83;;;;;;;9.45;80.86;102576.84;5076061;28;20044;-65
2022/03/27 03:59:24;;;;;;;34.60;17.33;;;;;;;9.34;81.09;102571.44;5058827;28;20048;-63
2022/03/27 04:01:56;;;;;;;33.72;17.13;;;;;;;9.39;81.20;102578.13;5074538;28;20045;-63
2022/03/27 04:04:23;;;;;;;32.05;17.25;;;;;;;9.23;81.41;102575.63;5041901;28;20102;-63
2022/03/27 04:06:50;;;;;;;35.05;17.65;;;;;;;9.20;81.76;102577.63;5056006;28;20036;-63
2022/03/27 04:09:17;;;;;;;33.90;17.55;;;;;;;9.29;81.90;102578.81;5074853;28;20043;-63
2022/03/27 04:11:45;;;;;;;35.22;17.67;;;;;;;9.20;82.03;102580.28;5074484;28;20404;-63
2022/03/27 04:14:12;;;;;;;43.35;19.00;;;;;;;9.29;81.77;102570.88;5074498;28;20036;-63
2022/03/27 04:16:39;;;;;;;32.63;17.40;;;;;;;9.18;81.59;102577.72;5074342;28;20045;-63
2022/03/27 04:19:05;;;;;;;49.38;19.98;;;;;;;9.16;82.29;102576.97;5075594;28;20045;-63
2022/03/27 04:21:32;;;;;;;36.08;19.02;;;;;;;9.20;82.13;102581.13;5075342;28;20496;-63
2022/03/27 04:23:59;;;;;;;35.80;19.52;;;;;;;9.10;82.29;102582.69;5075156;28;20437;-63
2022/03/27 04:26:29;;;;;;;32.75;18.05;;;;;;;9.03;82.82;102582.22;5075447;28;20052;-63
2022/03/27 04:28:56;;;;;;;39.88;20.80;;;;;;;9.10;82.58;102579.19;5075488;28;20446;-63
2022/03/27 04:31:22;;;;;;;42.10;20.98;;;;;;;8.99;82.59;102578.06;5075547;28;20459;-63
2022/03/27 04:33:49;;;;;;;44.08;21.65;;;;;;;9.00;83.05;102578.91;5057029;28;20048;-63
2022/03/27 04:36:16;;;;;;;40.92;20.08;;;;;;;8.98;83.39;102583.47;5075006;28;20041;-63
2022/03/27 04:38:42;;;;;;;48.03;21.80;;;;;;;9.02;82.82;102585.81;5075435;28;20045;-62
2022/03/27 04:41:09;;;;;;;47.60;21.35;;;;;;;8.92;83.49;102575.94;5074175;28;20043;-63
2022/03/27 04:43:36;;;;;;;43.30;21.80;;;;;;;9.01;83.14;102589.41;5073933;28;20481;-63
2022/03/27 04:46:03;;;;;;;48.83;22.73;;;;;;;9.11;82.59;102584.34;5073833;28;20119;-62
2022/03/27 04:48:30;;;;;;;51.08;23.35;;;;;;;8.97;83.21;102595.84;5075286;28;20094;-63
2022/03/27 04:50:56;;;;;;;49.35;23.35;;;;;;;8.90;84.04;102593.69;5074595;28;20098;-63
2022/03/27 04:53:23;;;;;;;48.15;24.38;;;;;;;8.99;83.52;102601.06;5090480;28;20044;-63
2022/03/27 04:55:50;;;;;;;51.55;25.00;;;;;;;8.99;83.87;102606.34;5075045;28;20055;-62
2022/03/27 04:58:17;;;;;;;53.60;25.35;;;;;;;9.08;83.89;102608.41;5057493;28;20484;-63
2022/03/27 05:00:45;;;;;;;51.67;24.58;;;;;;;9.00;83.77;102605.38;5074711;28;20052;-63
2022/03/27 05:03:12;;;;;;;53.65;25.20;;;;;;;9.03;84.35;102607.84;5073592;28;20045;-63
2022/03/27 05:05:40;;;;;;;56.03;25.25;;;;;;;9.12;83.99;102609.91;5074533;28;20390;-63
2022/03/27 05:08:07;;;;;;;51.28;25.95;;;;;;;9.21;84.12;102611.09;5072725;28;20067;-62
2022/03/27 05:10:35;;;;;;;54.45;25.85;;;;;;;9.18;83.84;102614.78;5057181;28;20041;-63
2022/03/27 05:13:02;;;;;;;55.63;26.00;;;;;;;8.95;85.40;102618.94;5074689;28;20055;-63
2022/03/27 05:15:29;;;;;;;50.85;25.17;;;;;;;8.94;85.11;102617.22;5074868;28;20075;-63
2022/03/27 05:17:58;;;;;;;48.45;24.48;;;;;;;8.99;85.29;102625.72;5073450;28;20045;-63
2022/03/27 05:20:27;;;;;;;52.75;26.33;;;;;;;9.18;84.56;102624.53;5074514;28;20051;-62
2022/03/27 05:22:55;;;;;;;55.17;26.70;;;;;;;9.20;85.06;102620.00;5072926;28;20040;-63
2022/03/27 05:25:22;;;;;;;58.40;26.90;;;;;;;9.16;84.88;102619.34;5056710;28;20098;-63
2022/03/27 05:27:53;;;;;;;57.63;26.83;;;;;;;9.08;85.80;102621.66;5074552;28;20182;-63
2022/03/27 05:30:23;;;;;;;56.85;27.73;;;;;;;9.11;85.81;102620.59;5074681;28;20399;-62
2022/03/27 05:32:52;;;;;;;59.33;27.63;;;;;;;9.15;85.21;102624.72;5073935;28;20119;-63
2022/03/27 05:35:20;;;;;;;60.90;28.77;;;;;;;9.31;85.33;102619.28;5073301;28;20074;-63
2022/03/27 05:37:48;;;;;;;53.80;27.33;;;;;;;9.34;84.54;102619.94;5072041;28;20557;-62
2022/03/27 05:40:18;;;;;;;64.78;28.45;;;;;;;9.37;84.59;102627.69;5074264;28;20043;-63
2022/03/27 05:42:46;;;;;;;59.40;29.02;;;;;;;9.45;84.87;102621.91;5073673;28;20044;-63
2022/03/27 05:45:13;;;;;;;58.47;28.10;;;;;;;9.44;84.22;102622.84;5074237;28;20071;-63
2022/03/27 05:47:41;;;;;;;57.22;27.42;;;;;;;9.47;84.25;102625.28;5072910;28;20140;-62
2022/03/27 05:50:11;;;;;;;55.58;27.58;;;;;;;9.41;84.47;102626.53;5075753;28;20052;-62
2022/03/27 05:52:38;;;;;;;57.67;27.20;;;;;;;9.45;84.53;102621.91;5081200;28;20519;-63
2022/03/27 05:55:05;;;;;;;57.95;28.25;;;;;;;9.45;84.97;102624.53;5079061;28;20110;-63
2022/03/27 05:57:32;;;;;;;58.58;28.25;;;;;;;9.41;84.89;102637.13;5073766;28;20032;-62
2022/03/27 05:59:59;;;;;;;63.45;29.13;;;;;;;9.39;84.52;102633.75;5073911;28;20068;-63
2022/03/27 06:02:26;;;;;;;60.38;28.80;;;;;;;9.53;84.51;102639.94;5072168;28;20049;-64
2022/03/27 06:04:54;;;;;;;54.63;27.60;;;;;;;9.63;84.70;102635.72;5065699;28;20055;-63
2022/03/27 06:07:21;;;;;;;56.03;27.55;;;;;;;9.66;84.19;102646.13;5071190;28;20046;-63
2022/03/27 06:09:48;;;;;;;57.15;28.27;;;;;;;9.90;83.28;102642.81;5062875;28;20459;-63
2022/03/27 06:12:15;;;;;;;54.58;27.25;;;;;;;9.87;83.10;102646.50;5055278;28;20059;-63
2022/03/27 06:14:42;;;;;;;58.38;28.30;;;;;;;9.86;83.36;102646.59;5072532;28;20127;-62
2022/03/27 06:17:09;;;;;;;54.17;26.95;;;;;;;9.85;83.24;102651.03;5073413;28;20046;-63
2022/03/27 06:19:36;;;;;;;59.03;27.20;;;;;;;9.90;82.80;102650.75;5072532;28;20106;-63
2022/03/27 06:22:03;;;;;;;56.75;26.75;;;;;;;9.89;82.97;102649.88;5072085;28;20048;-63
2022/03/27 06:24:30;;;;;;;55.90;26.70;;;;;;;9.90;83.20;102659.56;5072894;28;20049;-62
2022/03/27 06:26:56;;;;;;;47.70;24.60;;;;;;;10.11;82.41;102664.34;5072137;28;20054;-63
2022/03/27 06:29:23;;;;;;;46.17;24.77;;;;;;;9.82;83.34;102658.34;5055839;28;20044;-63
2022/03/27 06:31:51;;;;;;;51.03;24.38;;;;;;;9.85;83.43;102650.22;5071869;28;20052;-63
2022/03/27 06:34:19;;;;;;;49.38;24.92;;;;;;;9.96;83.20;102658.28;5070076;28;20048;-63
2022/03/27 06:36:46;;;;;;;57.75;27.13;;;;;;;10.04;82.74;102658.63;5073169;28;20055;-63
2022/03/27 06:39:13;;;;;;;55.10;27.35;;;;;;;9.99;82.90;102666.03;5073468;28;20040;-62
2022/03/27 06:41:40;;;;;;;60.03;27.20;;;;;;;10.01;82.30;102660.63;5073091;28;20049;-63
2022/03/27 06:44:08;;;;;;;52.72;27.48;;;;;;;10.08;82.28;102656.63;5073158;28;20040;-63
2022/03/27 06:46:35;;;;;;;57.10;26.83;;;;;;;10.12;81.93;102663.41;5071806;28;20044;-63
2022/03/27 06:49:02;;;;;;;58.40;27.38;;;;;;;10.09;82.36;102661.78;5072903;28;20036;-63
2022/03/27 06:51:29;;;;;;;58.80;26.83;;;;;;;10.22;81.87;102659.16;5072818;28;20049;-63
2022/03/27 06:53:56;;;;;;;53.85;27.70;;;;;;;10.27;81.37;102659.69;5073007;28;20488;-63
2022/03/27 06:56:23;;;;;;;53.53;27.23;;;;;;;10.19;81.48;102670.84;5072857;28;20043;-63
2022/03/27 06:58:50;;;;;;;56.45;28.73;;;;;;;10.07;82.20;102663.72;5073077;28;20072;-63
2022/03/27 07:04:03;;;;;;;65.55;27.70;;;;;;;9.95;82.34;102673.34;5054840;28;20061;-63
2022/03/27 07:06:31;;;;;;;54.65;27.55;;;;;;;10.15;81.89;102672.00;5069469;28;20049;-63
2022/03/27 07:08:59;;;;;;;60.80;27.33;;;;;;;10.12;81.61;102672.22;5055029;28;20046;-63
2022/03/27 07:11:26;;;;;;;50.08;26.73;;;;;;;10.03;82.22;102672.00;5072961;28;20467;-63
2022/03/27 07:13:53;;;;;;;56.97;27.17;;;;;;;9.95;82.51;102672.47;5072575;28;20459;-63
2022/03/27 07:16:19;;;;;;;55.55;27.25;;;;;;;10.21;81.88;102672.53;5071798;28;20253;-63
2022/03/27 07:18:49;;;;;;;52.70;27.27;;;;;;;10.24;81.62;102669.66;5072876;28;20071;-63
2022/03/27 07:21:18;;;;;;;48.40;26.17;;;;;;;10.21;81.33;102676.03;5071062;28;20127;-63
2022/03/27 07:23:45;;;;;;;53.92;26.83;;;;;;;10.33;80.87;102667.28;5073234;28;20041;-63
2022/03/27 07:26:11;;;;;;;47.83;25.27;;;;;;;10.29;80.68;102672.84;5076753;28;20048;-63
2022/03/27 07:28:38;;;;;;;57.55;27.52;;;;;;;10.33;80.75;102663.75;5075350;28;20071;-63
2022/03/27 07:31:05;;;;;;;53.08;27.42;;;;;;;10.33;80.47;102675.25;5075360;28;20449;-63
2022/03/27 07:33:32;;;;;;;54.13;28.08;;;;;;;10.04;81.70;102679.84;5073436;28;20041;-64
2022/03/27 07:35:59;;;;;;;50.95;27.58;;;;;;;10.24;81.25;102677.63;5066512;28;20045;-63
2022/03/27 07:38:26;;;;;;;53.83;27.83;;;;;;;10.22;81.03;102680.38;5074186;28;20044;-63
2022/03/27 07:40:55;;;;;;;58.13;28.85;;;;;;;10.44;80.83;102682.47;5059124;28;20044;-64
2022/03/27 07:43:22;;;;;;;54.28;27.63;;;;;;;10.45;80.34;102681.50;5075982;28;20037;-64
2022/03/27 07:45:48;;;;;;;53.55;27.55;;;;;;;10.61;80.14;102680.44;5076331;28;20048;-65
2022/03/27 07:48:15;;;;;;;58.55;28.73;;;;;;;10.42;79.90;102680.84;5075178;28;20492;-64
2022/03/27 07:50:42;;;;;;;59.92;29.85;;;;;;;10.62;79.72;102677.66;5058497;28;20044;-64
2022/03/27 07:53:09;;;;;;;54.53;28.73;;;;;;;10.56;79.84;102681.59;5075784;28;20118;-64
2022/03/27 07:55:37;;;;;;;59.80;28.17;;;;;;;10.41;80.30;102682.66;5076141;28;20044;-64
2022/03/27 07:58:04;;;;;;;59.95;28.75;;;;;;;10.50;80.03;102670.56;5041881;28;20048;-62
2022/03/27 08:00:31;;;;;;;61.42;29.58;;;;;;;10.56;79.76;102678.09;5075935;28;20044;-62
2022/03/27 08:02:58;;;;;;;58.78;30.08;;;;;;;10.44;80.06;102670.97;5075426;28;20063;-63
2022/03/27 08:05:26;;;;;;;65.78;31.42;;;;;;;10.65;79.60;102674.81;5078964;28;20070;-64
2022/03/27 08:07:55;;;;;;;60.72;31.80;;;;;;;10.64;79.38;102674.91;5073716;28;20051;-64
2022/03/27 08:10:22;;;;;;;66.28;32.15;;;;;;;10.67;79.31;102670.22;5075796;28;20094;-64
2022/03/27 08:12:49;;;;;;;63.35;30.17;;;;;;;10.82;78.95;102676.25;5057935;28;20128;-64
2022/03/27 08:15:17;;;;;;;65.88;31.33;;;;;;;10.74;78.79;102673.31;5075616;28;20039;-64
2022/03/27 08:17:46;;;;;;;68.70;32.42;;;;;;;10.65;79.43;102673.97;5075597;28;20036;-65
2022/03/27 08:20:13;;;;;;;73.18;33.90;;;;;;;10.87;78.67;102674.13;5074716;28;20041;-62
2022/03/27 08:22:39;;;;;;;68.50;31.92;;;;;;;10.88;78.29;102669.69;5073910;28;20066;-65
2022/03/27 08:25:07;;;;;;;73.55;33.22;;;;;;;10.82;78.09;102662.97;5075382;28;20152;-65
2022/03/27 08:27:33;;;;;;;75.78;33.22;;;;;;;10.83;77.96;102667.34;5075472;28;20043;-64
2022/03/27 08:30:01;;;;;;;74.78;31.63;;;;;;;10.88;77.70;102669.69;5075526;28;20488;-64
2022/03/27 08:32:28;;;;;;;68.70;32.33;;;;;;;10.99;77.37;102664.47;5075248;28;20467;-64
2022/03/27 08:34:55;;;;;;;75.10;31.88;;;;;;;10.95;77.83;102662.97;5075078;28;20044;-64
2022/03/27 08:37:22;;;;;;;73.53;33.85;;;;;;;10.93;77.83;102664.88;5071946;28;20381;-64
2022/03/27 08:39:49;;;;;;;76.55;34.20;;;;;;;10.90;77.88;102658.00;5074084;28;20064;-64
2022/03/27 08:42:19;;;;;;;71.65;31.83;;;;;;;11.12;77.58;102664.44;5075667;28;20103;-64
2022/03/27 08:44:46;;;;;;;76.35;32.10;;;;;;;11.34;76.54;102667.22;5074939;28;20036;-64
2022/03/27 08:47:17;;;;;;;83.05;32.60;;;;;;;11.45;75.69;102669.06;5057235;28;20067;-64
2022/03/27 08:49:53;;;;;;;75.57;31.52;;;;;;;11.75;75.08;102667.78;5075117;28;20149;-64
2022/03/27 08:55:07;;;;;;;75.55;30.88;;;;;;;12.36;72.48;102656.97;5090339;27;20392;-63
2022/03/27 08:58:00;;;;;;;70.50;33.65;;;;;;;12.51;72.10;102652.25;5072762;28;20044;-64
2022/03/27 09:00:29;;;;;;;79.38;32.80;;;;;;;12.90;70.63;102658.06;5090188;28;20047;-64
2022/03/27 09:02:58;;;;;;;77.25;32.05;;;;;;;13.14;69.19;102660.56;5090099;28;20048;-64
2022/03/27 09:05:25;;;;;;;76.88;34.00;;;;;;;13.27;68.54;102659.56;5089020;28;20500;-64
2022/03/27 09:07:54;;;;;;;68.85;31.70;;;;;;;13.27;68.43;102663.09;5087886;28;20098;-64
2022/03/27 09:10:23;;;;;;;71.80;33.03;;;;;;;13.31;68.75;102669.03;5089067;28;20044;-64
2022/03/27 09:12:51;;;;;;;74.13;32.22;;;;;;;13.15;68.13;102664.06;5122803;28;20048;-64
2022/03/27 09:15:20;;;;;;;77.50;32.67;;;;;;;13.28;68.30;102669.25;5080384;28;20481;-64
2022/03/27 09:18:08;;;;;;;73.28;31.48;;;;;;;13.66;67.48;102670.63;5089026;28;20106;-64
2022/03/27 09:20:40;;;;;;;64.45;30.75;;;;;;;13.53;66.63;102671.63;5089841;28;20040;-64
2022/03/27 09:23:28;;;;;;;62.95;28.85;;;;;;;14.15;64.46;102672.69;5071527;28;20131;-64
2022/03/27 09:25:57;;;;;;;62.00;28.20;;;;;;;15.10;61.70;102674.28;5089921;28;20407;-63
2022/03/27 09:28:36;;;;;;;59.63;28.05;;;;;;;16.12;58.00;102671.25;5085098;28;20048;-64
2022/03/27 09:31:05;;;;;;;65.43;29.27;;;;;;;17.13;55.13;102667.06;5072201;28;20068;-64
2022/03/27 09:36:11;;;;;;;56.85;28.83;;;;;;;19.35;48.98;102670.22;5110833;27;20871;-64
2022/03/27 09:38:39;;;;;;;57.97;27.77;;;;;;;20.35;46.54;102663.81;5092389;28;20044;-64
2022/03/27 09:41:07;;;;;;;59.47;28.65;;;;;;;20.62;44.51;102661.75;5111077;28;20048;-64
2022/03/27 09:43:34;;;;;;;59.70;29.67;;;;;;;20.32;44.13;102661.50;5109201;28;20055;-64
2022/03/27 09:46:03;;;;;;;55.80;28.92;;;;;;;21.49;41.85;102663.53;5110645;28;20040;-64
2022/03/27 09:48:31;;;;;;;50.55;27.63;;;;;;;22.09;40.82;102657.25;5110868;28;20047;-64
2022/03/27 09:51:00;;;;;;;48.58;26.95;;;;;;;21.20;41.63;102657.75;5110185;28;20036;-64
2022/03/27 09:53:31;;;;;;;46.95;27.60;;;;;;;20.13;43.71;102658.16;5108354;28;20436;-64
2022/03/27 09:58:37;;;;;;;51.30;27.05;;;;;;;20.68;43.18;102658.34;5089948;27;21124;-65
2022/03/27 10:01:16;;;;;;;49.83;25.83;;;;;;;21.06;41.97;102655.81;5089653;28;20048;-65
2022/03/27 10:04:08;;;;;;;48.10;25.52;;;;;;;20.82;42.60;102651.41;5089280;28;20053;-65
2022/03/27 10:06:38;;;;;;;45.22;25.67;;;;;;;22.13;40.00;102642.31;5088421;28;20497;-65
2022/03/27 10:09:08;;;;;;;49.33;26.88;;;;;;;22.90;37.79;102651.06;5090276;28;20055;-64
2022/03/27 10:11:38;;;;;;;50.20;26.77;;;;;;;22.17;38.93;102640.94;5089000;28;20048;-64
2022/03/27 10:14:06;;;;;;;44.65;25.30;;;;;;;21.44;40.51;102637.00;5088701;28;20036;-63
2022/03/27 10:16:38;;;;;;;50.55;26.77;;;;;;;21.04;41.09;102631.72;5090211;28;20082;-63
2022/03/27 10:19:10;;;;;;;52.17;28.85;;;;;;;20.62;42.13;102632.94;5075562;28;20052;-63
2022/03/27 10:21:41;;;;;;;51.53;27.73;;;;;;;21.08;41.51;102635.75;5091600;28;20044;-65
2022/03/27 10:24:13;;;;;;;50.75;26.60;;;;;;;20.41;42.71;102630.81;5089503;28;20055;-65
2022/03/27 10:26:45;;;;;;;49.42;27.13;;;;;;;20.99;41.56;102625.16;5090056;28;20040;-64
2022/03/27 10:29:14;;;;;;;49.78;27.38;;;;;;;22.59;38.85;102627.81;5090095;28;20051;-64
2022/03/27 10:31:41;;;;;;;43.75;24.55;;;;;;;22.82;37.96;102627.69;5088626;28;20500;-65
2022/03/27 10:34:11;;;;;;;46.33;25.65;;;;;;;23.09;36.83;102622.59;5071522;28;20072;-65
2022/03/27 10:37:00;;;;;;;44.20;24.70;;;;;;;21.75;39.17;102620.75;5089593;28;20044;-63
2022/03/27 10:39:48;;;;;;;45.90;25.08;;;;;;;22.37;39.25;102625.03;5071343;28;20052;-63
2022/03/27 10:42:23;;;;;;;37.80;22.67;;;;;;;21.22;40.96;102609.84;5089771;28;20048;-63
2022/03/27 10:44:58;;;;;;;42.20;23.35;;;;;;;19.17;45.35;102613.03;5089237;28;20405;-63
2022/03/27 10:47:28;;;;;;;38.33;23.08;;;;;;;19.02;45.98;102606.63;5089412;28;20107;-64
2022/03/27 10:55:19;;;;;;;40.78;22.08;;;;;;;17.92;49.34;102606.41;5090336;27;20363;-64
2022/03/27 10:57:50;;;;;;;34.63;21.92;;;;;;;18.18;48.40;102601.06;5089574;28;20048;-64
2022/03/27 11:00:38;;;;;;;37.05;21.50;;;;;;;17.96;49.28;102603.28;5089179;28;20127;-64
2022/03/27 11:03:05;;;;;;;39.60;20.80;;;;;;;17.78;49.98;102591.72;5089831;28;20048;-64
2022/03/27 11:10:55;;;;;;;38.15;21.95;;;;;;;18.52;48.50;102584.94;5090383;27;20385;-64
2022/03/27 11:18:45;;;;;;;40.83;24.10;;;;;;;18.32;48.42;102584.34;5051712;27;1163380;-64
2022/03/27 11:21:33;;;;;;;38.25;23.15;;;;;;;18.03;48.92;102579.31;5083484;28;20337;-64
2022/03/27 11:26:37;;;;;;;41.50;23.17;;;;;;;19.70;45.21;102571.34;5090228;27;20363;-62
2022/03/27 11:29:22;;;;;;;39.63;22.13;;;;;;;19.79;44.38;102572.19;5072329;28;20040;-63
2022/03/27 11:32:07;;;;;;;44.22;23.17;;;;;;;20.52;43.40;102567.59;5088841;28;20547;-63
2022/03/27 11:34:36;;;;;;;41.38;22.90;;;;;;;19.70;44.14;102570.47;5090355;28;20044;-63
2022/03/27 11:37:12;;;;;;;43.42;24.17;;;;;;;20.42;42.62;102559.69;5070003;28;20075;-64
2022/03/27 11:39:41;;;;;;;41.55;23.73;;;;;;;20.60;42.13;102558.63;5089261;28;20054;-63
2022/03/27 11:45:10;;;;;;;42.95;22.65;;;;;;;22.07;39.59;102553.91;5110563;27;20385;-63
2022/03/27 11:47:40;;;;;;;41.08;23.15;;;;;;;21.92;38.84;102553.91;5109600;28;20051;-63
2022/03/27 11:50:17;;;;;;;44.53;24.10;;;;;;;22.37;37.86;102554.72;5093066;28;20326;-63
2022/03/27 11:52:46;;;;;;;42.10;23.88;;;;;;;22.71;37.58;102549.72;5109196;28;20040;-63
2022/03/27 11:55:12;;;;;;;43.20;23.50;;;;;;;22.87;37.14;102549.50;5110437;28;20036;-63